Time;durP1;ratioP1;P1;durP2;ratioP2;P2;SDS_P1;SDS_P2;PMS_P1;PMS_P2;Temp;Humidity;BMP_temperature;BMP_pressure;BME280_temperature;BME280_humidity;BME280_pressure;Samples;Min_cycle;Max_cycle;Signal;HPM_P1;HPM_P2
2022/12/25 00:01:12;;;;;;;7.90;3.57;;;6.70;99.90;;;;;;5035442;28;20065;-77
2022/12/25 00:03:38;;;;;;;6.20;3.50;;;6.70;99.90;;;;;;5036344;28;20446;-78
2022/12/25 00:06:04;;;;;;;5.37;3.03;;;6.70;99.90;;;;;;5035731;28;20022;-78
2022/12/25 00:08:30;;;;;;;4.97;2.93;;;6.60;99.90;;;;;;5023189;28;20017;-77
2022/12/25 00:10:57;;;;;;;4.50;2.73;;;6.60;99.90;;;;;;5037438;28;20025;-77
2022/12/25 00:13:22;;;;;;;3.97;2.37;;;6.60;99.90;;;;;;5055202;28;20040;-77
2022/12/25 00:15:48;;;;;;;3.47;2.23;;;6.60;99.90;;;;;;5055454;28;20086;-77
2022/12/25 00:18:13;;;;;;;4.87;2.87;;;6.60;99.90;;;;;;5055379;28;20496;-77
2022/12/25 00:20:39;;;;;;;3.83;2.33;;;6.60;99.90;;;;;;5055468;28;20428;-77
2022/12/25 00:23:04;;;;;;;4.60;2.50;;;6.60;99.90;;;;;;5031047;28;20473;-77
2022/12/25 00:25:30;;;;;;;3.50;2.13;;;6.60;99.90;;;;;;5054640;28;20060;-77
2022/12/25 00:27:55;;;;;;;3.40;2.10;;;6.50;99.90;;;;;;5054911;28;20028;-77
2022/12/25 00:30:21;;;;;;;3.37;2.20;;;6.50;99.90;;;;;;5049641;28;20013;-77
2022/12/25 00:32:46;;;;;;;7.60;4.73;;;6.50;99.90;;;;;;5035131;28;20033;-78
2022/12/25 00:35:12;;;;;;;5.60;4.00;;;6.40;99.90;;;;;;5046307;28;20025;-77
2022/12/25 00:37:37;;;;;;;6.20;3.33;;;6.40;99.90;;;;;;5054849;28;20025;-77
2022/12/25 00:40:03;;;;;;;7.07;2.90;;;6.40;99.90;;;;;;5028620;28;20033;-77
2022/12/25 00:42:29;;;;;;;4.37;2.43;;;6.30;99.90;;;;;;5055203;28;20366;-77
2022/12/25 00:44:54;;;;;;;5.27;2.30;;;6.20;99.90;;;;;;5055015;28;20096;-77
2022/12/25 00:47:20;;;;;;;3.50;2.10;;;6.20;99.90;;;;;;5054635;28;20478;-77
2022/12/25 00:49:45;;;;;;;4.40;2.43;;;6.10;99.90;;;;;;5054688;28;20017;-77
2022/12/25 00:52:11;;;;;;;5.03;2.57;;;6.10;99.90;;;;;;5054741;28;20029;-77
2022/12/25 00:54:37;;;;;;;4.27;2.33;;;6.10;99.90;;;;;;5054481;28;20087;-77
2022/12/25 00:57:02;;;;;;;4.70;2.60;;;6.00;99.90;;;;;;5054871;28;20036;-77
2022/12/25 00:59:31;;;;;;;3.20;2.17;;;6.00;99.90;;;;;;5036409;28;20032;-77
2022/12/25 01:02:21;;;;;;;4.70;2.30;;;6.00;99.90;;;;;;5036532;28;20380;-77
2022/12/25 01:04:42;;;;;;;3.30;2.15;;;6.00;99.90;;;;;;5053511;28;20021;-77
2022/12/25 01:07:08;;;;;;;4.33;2.97;;;6.00;99.90;;;;;;5042178;28;20033;-77
2022/12/25 01:12:17;;;;;;;3.83;1.90;;;6.00;99.90;;;;;;5037160;28;20032;-77
2022/12/25 01:14:43;;;;;;;3.13;2.03;;;6.10;99.90;;;;;;5054045;28;20048;-77
2022/12/25 01:17:08;;;;;;;3.17;1.80;;;6.10;99.90;;;;;;5054033;28;20032;-77
2022/12/25 01:19:34;;;;;;;3.10;1.70;;;6.20;99.90;;;;;;5054011;28;20032;-77
2022/12/25 01:21:59;;;;;;;2.83;2.00;;;6.20;99.90;;;;;;5053928;28;20041;-78
2022/12/25 01:24:25;;;;;;;2.90;1.90;;;6.20;99.90;;;;;;5054358;28;20036;-77
2022/12/25 01:26:52;;;;;;;4.47;2.00;;;6.30;99.90;;;;;;5054180;28;20029;-77
2022/12/25 01:29:17;;;;;;;4.53;1.90;;;6.30;99.90;;;;;;5054081;28;20386;-77
2022/12/25 01:31:43;;;;;;;3.00;1.60;;;6.30;99.90;;;;;;5054083;28;20040;-77
2022/12/25 01:34:08;;;;;;;2.40;1.60;;;6.30;99.90;;;;;;5042313;28;20044;-77
2022/12/25 01:36:34;;;;;;;2.20;1.50;;;6.40;99.90;;;;;;5033796;28;20041;-77
2022/12/25 01:39:00;;;;;;;3.67;1.80;;;6.40;99.90;;;;;;5048507;28;20060;-77
2022/12/25 01:41:25;;;;;;;3.57;1.77;;;6.50;99.90;;;;;;5053993;28;20347;-77
2022/12/25 01:44:13;;;;;;;2.57;1.77;;;6.50;99.90;;;;;;5053811;28;20032;-77
2022/12/25 01:46:39;;;;;;;4.57;1.80;;;6.50;99.90;;;;;;5021182;28;20067;-78
2022/12/25 01:49:24;;;;;;;3.33;1.97;;;6.60;99.90;;;;;;5022293;28;20036;-77
2022/12/25 01:52:09;;;;;;;3.30;1.67;;;6.60;99.90;;;;;;5053547;28;20108;-77
2022/12/25 01:54:40;;;;;;;3.28;1.60;;;6.60;99.90;;;;;;5053693;28;20291;-77
2022/12/25 01:57:10;;;;;;;2.87;1.80;;;6.60;99.90;;;;;;5053360;28;20024;-77
2022/12/25 01:59:36;;;;;;;2.43;1.60;;;6.70;99.90;;;;;;5053706;28;20374;-77
2022/12/25 02:02:02;;;;;;;2.07;1.50;;;6.70;99.90;;;;;;5030114;28;20025;-78
2022/12/25 02:04:39;;;;;;;3.60;1.70;;;6.70;99.90;;;;;;5038775;28;20021;-77
2022/12/25 02:07:08;;;;;;;3.57;1.67;;;6.70;99.90;;;;;;5053570;28;20444;-77
2022/12/25 02:09:34;;;;;;;2.80;1.70;;;6.70;99.90;;;;;;5053295;28;20031;-77
2022/12/25 02:12:00;;;;;;;3.27;1.30;;;6.70;99.90;;;;;;5065366;28;20532;-77
2022/12/25 02:14:29;;;;;;;2.87;1.57;;;6.70;99.90;;;;;;5064353;28;20045;-77
2022/12/25 02:17:08;;;;;;;2.00;1.40;;;6.70;99.90;;;;;;5053273;28;20029;-77
2022/12/25 02:19:49;;;;;;;2.20;1.40;;;6.70;99.90;;;;;;5037292;28;20076;-77
2022/12/25 02:22:20;;;;;;;2.47;1.50;;;6.70;99.90;;;;;;5032973;28;20069;-77
2022/12/25 02:24:53;;;;;;;3.00;1.60;;;6.70;99.90;;;;;;5033521;28;20378;-77
2022/12/25 02:27:43;;;;;;;2.13;1.30;;;6.70;99.90;;;;;;5032952;28;20064;-78
2022/12/25 02:30:10;;;;;;;2.13;1.40;;;6.70;99.90;;;;;;5052002;28;20021;-77
2022/12/25 02:35:53;;;;;;;2.27;1.40;;;6.70;99.90;;;;;;5053283;28;20378;-78
2022/12/25 02:38:23;;;;;;;2.70;1.67;;;6.70;99.90;;;;;;5051331;28;20048;-78
2022/12/25 02:40:54;;;;;;;1.60;1.30;;;6.70;99.90;;;;;;5052941;28;20458;-77
2022/12/25 03:08:45;;;;;;;2.50;1.27;;;6.70;99.90;;;;;;5059037;28;20389;-77
2022/12/25 03:11:29;;;;;;;2.70;1.20;;;6.70;99.90;;;;;;5059625;28;20032;-78
2022/12/25 03:16:52;;;;;;;1.97;1.30;;;6.70;99.90;;;;;;5058535;28;20104;-77
2022/12/25 03:27:50;;;;;;;3.33;1.30;;;6.70;99.90;;;;;;5057888;28;20064;-77
2022/12/25 03:33:17;;;;;;;3.77;1.63;;;6.70;99.90;;;;;;5050976;28;20071;-77
2022/12/25 03:36:06;;;;;;;2.23;1.60;;;6.70;99.90;;;;;;5040824;28;20036;-77
2022/12/25 04:37:26;;;;;;;3.70;1.70;;;6.80;99.90;;;;;;5055179;28;20028;-78
2022/12/25 04:39:52;;;;;;;2.13;1.40;;;6.80;99.90;;;;;;5055429;28;20025;-78
2022/12/25 04:42:17;;;;;;;2.50;1.60;;;6.80;99.90;;;;;;5054995;28;20029;-77
2022/12/25 04:44:43;;;;;;;2.90;1.63;;;6.80;99.90;;;;;;5054945;28;20025;-77
2022/12/25 04:47:08;;;;;;;2.90;1.47;;;6.80;99.90;;;;;;5054699;28;20402;-77
2022/12/25 04:49:34;;;;;;;4.77;2.00;;;6.80;99.90;;;;;;5037059;28;20025;-78
2022/12/25 04:51:59;;;;;;;6.30;2.80;;;6.80;99.90;;;;;;5054883;28;20111;-78
2022/12/25 04:54:25;;;;;;;6.67;2.90;;;6.70;99.90;;;;;;5055008;28;20099;-78
2022/12/25 04:56:51;;;;;;;4.70;2.90;;;6.70;99.90;;;;;;5054561;28;20039;-78
2022/12/25 04:59:16;;;;;;;3.23;2.30;;;6.70;99.90;;;;;;5054876;28;20083;-78
2022/12/25 05:01:42;;;;;;;4.17;2.50;;;6.70;99.90;;;;;;5054406;28;20029;-78
2022/12/25 05:04:07;;;;;;;3.47;1.87;;;6.70;99.90;;;;;;5054774;28;20017;-78
2022/12/25 05:06:33;;;;;;;3.33;2.10;;;6.70;99.90;;;;;;5054246;28;20021;-78
2022/12/25 05:08:58;;;;;;;3.30;2.00;;;6.70;99.90;;;;;;5036094;28;20140;-78
2022/12/25 05:11:24;;;;;;;2.97;1.67;;;6.70;99.90;;;;;;5053712;28;20115;-78
2022/12/25 05:13:49;;;;;;;2.97;1.93;;;6.70;99.90;;;;;;5054149;28;20119;-78
2022/12/25 05:16:17;;;;;;;3.00;2.00;;;6.70;99.90;;;;;;5054327;28;20036;-78
2022/12/25 05:18:43;;;;;;;3.40;2.23;;;6.70;99.90;;;;;;5054380;28;20480;-78
2022/12/25 05:21:11;;;;;;;2.80;1.60;;;6.70;99.90;;;;;;5053911;28;20052;-78
2022/12/25 05:23:37;;;;;;;2.50;1.60;;;6.70;99.90;;;;;;5036137;28;20025;-78
2022/12/25 05:26:04;;;;;;;2.83;1.77;;;6.70;99.90;;;;;;5053964;28;20036;-78
2022/12/25 05:28:30;;;;;;;2.93;1.90;;;6.60;99.90;;;;;;5054145;28;20021;-78
2022/12/25 05:30:56;;;;;;;2.47;1.73;;;6.70;99.90;;;;;;5036360;28;20026;-78
2022/12/25 05:33:22;;;;;;;2.20;1.57;;;6.70;99.90;;;;;;5054288;28;20023;-77
2022/12/25 05:35:47;;;;;;;3.07;1.63;;;6.60;99.90;;;;;;5053956;28;20021;-77
2022/12/25 05:38:13;;;;;;;3.03;1.60;;;6.60;99.90;;;;;;5036258;28;20025;-78
2022/12/25 05:40:39;;;;;;;3.20;1.80;;;6.60;99.90;;;;;;5054028;28;20029;-77
2022/12/25 05:43:05;;;;;;;2.77;1.60;;;6.60;99.90;;;;;;5053554;28;20104;-77
2022/12/25 05:45:31;;;;;;;2.93;1.50;;;6.60;99.90;;;;;;5035944;28;20111;-77
2022/12/25 05:47:56;;;;;;;4.13;1.80;;;6.60;99.90;;;;;;5053719;28;20029;-77
2022/12/25 05:50:22;;;;;;;2.03;1.40;;;6.60;99.90;;;;;;5052129;28;20025;-77
2022/12/25 05:52:47;;;;;;;2.13;1.40;;;6.60;99.90;;;;;;5053896;28;20029;-77
2022/12/25 05:55:13;;;;;;;3.13;1.57;;;6.60;99.90;;;;;;5053687;28;20025;-78
2022/12/25 05:57:38;;;;;;;2.20;1.60;;;6.60;99.90;;;;;;5053290;28;20037;-78
2022/12/25 06:00:05;;;;;;;3.13;1.40;;;6.60;99.90;;;;;;5035492;28;20029;-78
2022/12/25 06:02:31;;;;;;;3.60;1.93;;;6.60;99.90;;;;;;5035293;28;20029;-78
2022/12/25 06:04:56;;;;;;;5.00;1.83;;;6.60;99.90;;;;;;5053264;28;20021;-78
2022/12/25 06:07:22;;;;;;;4.43;1.70;;;6.60;99.90;;;;;;5053447;28;20472;-78
2022/12/25 06:09:47;;;;;;;4.70;1.50;;;6.60;99.90;;;;;;5053058;28;20047;-78
2022/12/25 06:12:13;;;;;;;1.90;1.37;;;6.60;99.90;;;;;;5053459;28;20386;-78
2022/12/25 06:14:38;;;;;;;2.53;1.60;;;6.60;99.90;;;;;;5052960;28;20457;-78
2022/12/25 06:17:04;;;;;;;5.30;3.00;;;6.60;99.90;;;;;;5052999;28;20059;-78
2022/12/25 06:19:29;;;;;;;3.13;1.93;;;6.60;99.90;;;;;;5053236;28;20063;-77
2022/12/25 06:21:55;;;;;;;8.57;6.50;;;6.60;99.90;;;;;;5052640;28;20040;-78
2022/12/25 06:24:22;;;;;;;5.93;4.20;;;6.60;99.90;;;;;;5052593;28;20021;-78
2022/12/25 06:26:48;;;;;;;5.30;3.63;;;6.60;99.90;;;;;;5051589;28;20385;-78
2022/12/25 06:29:14;;;;;;;5.23;3.70;;;6.60;99.90;;;;;;5053395;28;20024;-78
2022/12/25 06:31:40;;;;;;;3.87;1.83;;;6.60;99.90;;;;;;5053118;28;20021;-79
2022/12/25 06:34:05;;;;;;;2.07;1.37;;;6.60;99.90;;;;;;5053138;28;20107;-78
2022/12/25 06:36:31;;;;;;;2.73;1.70;;;6.60;99.90;;;;;;5052794;28;20021;-78
2022/12/25 06:38:59;;;;;;;4.20;1.77;;;6.60;99.90;;;;;;5053071;28;20033;-78
2022/12/25 06:41:27;;;;;;;2.47;1.50;;;6.60;99.90;;;;;;5052685;28;20025;-78
2022/12/25 06:43:55;;;;;;;2.67;1.70;;;6.60;99.90;;;;;;5052781;28;20067;-78
2022/12/25 06:46:21;;;;;;;4.20;2.40;;;6.60;99.90;;;;;;5053126;28;20126;-78
2022/12/25 06:48:48;;;;;;;2.93;1.60;;;6.60;99.90;;;;;;5052904;28;20024;-78
2022/12/25 06:51:26;;;;;;;4.60;1.70;;;6.60;99.90;;;;;;5051359;28;20032;-78
2022/12/25 06:53:53;;;;;;;3.07;2.00;;;6.50;99.90;;;;;;5034875;28;20032;-78
2022/12/25 06:56:22;;;;;;;4.70;2.10;;;6.50;99.90;;;;;;5032932;28;20033;-78
2022/12/25 06:58:51;;;;;;;3.87;2.33;;;6.50;99.90;;;;;;5032688;28;20108;-78
2022/12/25 07:01:17;;;;;;;5.10;2.83;;;6.50;99.90;;;;;;5032814;28;20463;-78
2022/12/25 07:03:44;;;;;;;3.00;2.20;;;6.50;99.90;;;;;;5031603;28;20103;-78
2022/12/25 07:06:10;;;;;;;4.53;1.90;;;6.60;99.90;;;;;;5032754;28;20431;-78
2022/12/25 07:08:35;;;;;;;2.53;1.40;;;6.50;99.90;;;;;;5033042;28;20032;-78
2022/12/25 07:11:01;;;;;;;2.90;1.73;;;6.60;99.90;;;;;;5032778;28;20071;-77
2022/12/25 07:13:27;;;;;;;2.70;1.70;;;6.60;99.90;;;;;;5032419;28;20034;-77
2022/12/25 07:16:00;;;;;;;2.93;1.77;;;6.60;99.90;;;;;;5030389;28;20025;-79
2022/12/25 07:18:27;;;;;;;2.20;1.43;;;6.60;99.90;;;;;;5032813;28;20149;-80
2022/12/25 07:20:54;;;;;;;2.47;1.60;;;6.60;99.90;;;;;;5032374;28;20021;-80
2022/12/25 07:23:21;;;;;;;2.60;1.70;;;6.60;99.90;;;;;;5032499;28;20072;-80
2022/12/25 07:25:57;;;;;;;3.60;1.63;;;6.60;99.90;;;;;;5032492;28;20362;-80
2022/12/25 07:28:23;;;;;;;2.13;1.40;;;6.70;99.90;;;;;;5032605;28;20025;-80
2022/12/25 07:30:49;;;;;;;3.97;1.50;;;6.70;99.90;;;;;;5032654;28;20411;-79
2022/12/25 07:33:15;;;;;;;2.17;1.37;;;6.60;99.90;;;;;;5032669;28;20030;-80
2022/12/25 07:35:40;;;;;;;2.60;1.60;;;6.70;99.90;;;;;;5035982;28;20053;-86
2022/12/25 07:38:06;;;;;;;6.10;3.47;;;6.70;99.90;;;;;;5036072;28;20026;-80
2022/12/25 07:40:32;;;;;;;22.07;11.63;;;6.70;99.90;;;;;;5036504;28;20116;-80
2022/12/25 07:42:57;;;;;;;9.17;4.90;;;6.70;99.90;;;;;;5036187;28;20108;-80
2022/12/25 07:45:23;;;;;;;7.33;3.93;;;6.80;99.90;;;;;;5036047;28;20029;-80
2022/12/25 07:47:48;;;;;;;26.33;12.97;;;6.80;99.90;;;;;;5036077;28;20035;-80
2022/12/25 07:50:14;;;;;;;16.50;8.67;;;6.90;99.90;;;;;;5036314;28;20029;-80
2022/12/25 07:52:39;;;;;;;13.70;7.80;;;6.90;99.90;;;;;;5034438;28;20108;-80
2022/12/25 07:55:05;;;;;;;4.57;3.43;;;6.90;99.90;;;;;;5035819;28;20026;-80
2022/12/25 07:57:31;;;;;;;5.33;3.00;;;7.00;99.90;;;;;;5035622;28;20029;-80
2022/12/25 07:59:56;;;;;;;3.87;2.73;;;7.00;99.90;;;;;;5036161;28;20017;-80
2022/12/25 08:02:27;;;;;;;3.97;2.73;;;7.10;99.90;;;;;;5035523;28;20040;-80
2022/12/25 08:04:56;;;;;;;3.23;2.10;;;7.10;99.90;;;;;;5035625;28;20516;-80
2022/12/25 08:07:22;;;;;;;5.83;3.80;;;7.20;99.90;;;;;;5035484;28;20025;-80
2022/12/25 08:09:48;;;;;;;2.37;1.60;;;7.30;99.90;;;;;;5035809;28;20029;-80
2022/12/25 08:12:14;;;;;;;2.93;1.80;;;7.30;99.90;;;;;;5035962;28;20448;-80
2022/12/25 08:14:40;;;;;;;2.03;1.13;;;7.40;99.90;;;;;;5035784;28;20470;-80
2022/12/25 08:17:06;;;;;;;2.63;1.30;;;7.50;99.90;;;;;;5035639;28;20454;-81
2022/12/25 08:19:32;;;;;;;2.30;1.00;;;7.60;99.90;;;;;;5018033;28;20026;-81
2022/12/25 08:21:57;;;;;;;1.87;1.33;;;7.70;99.90;;;;;;5017514;28;20363;-80
2022/12/25 08:24:23;;;;;;;3.37;1.80;;;7.80;99.90;;;;;;5035328;28;20033;-80
2022/12/25 08:26:48;;;;;;;3.50;2.40;;;7.90;99.90;;;;;;5017408;28;20037;-81
2022/12/25 08:29:14;;;;;;;2.00;1.03;;;7.90;99.90;;;;;;5035178;28;20025;-80
2022/12/25 08:31:42;;;;;;;0.87;0.83;;;8.00;99.90;;;;;;5035585;28;20103;-80
2022/12/25 08:34:07;;;;;;;1.63;0.90;;;8.00;99.90;;;;;;5035202;28;20033;-80
2022/12/25 08:36:33;;;;;;;3.67;1.17;;;8.00;99.90;;;;;;5017267;28;20470;-80
2022/12/25 08:38:59;;;;;;;1.33;0.90;;;8.00;99.90;;;;;;5034991;28;20056;-80
2022/12/25 08:41:24;;;;;;;1.57;1.00;;;8.00;99.90;;;;;;5035180;28;20108;-81
2022/12/25 08:43:50;;;;;;;1.50;1.00;;;8.00;99.90;;;;;;5035137;28;20025;-80
2022/12/25 08:46:18;;;;;;;1.60;1.00;;;8.00;99.90;;;;;;5034436;28;20112;-81
2022/12/25 08:48:47;;;;;;;1.57;0.93;;;8.00;99.90;;;;;;5035146;28;20468;-80
2022/12/25 08:51:15;;;;;;;5.53;1.40;;;8.00;99.90;;;;;;5034792;28;20053;-80
2022/12/25 08:53:42;;;;;;;2.80;1.10;;;8.00;99.90;;;;;;5034737;28;20041;-80
2022/12/25 08:56:08;;;;;;;3.93;1.10;;;8.10;99.90;;;;;;5034913;28;20029;-80
2022/12/25 08:58:33;;;;;;;2.10;1.00;;;8.10;99.90;;;;;;5017179;28;20109;-80
2022/12/25 09:00:59;;;;;;;1.13;0.90;;;8.20;99.90;;;;;;5017376;28;20022;-80
2022/12/25 09:03:25;;;;;;;1.10;0.80;;;8.30;99.90;;;;;;5034508;28;20029;-80
2022/12/25 09:05:54;;;;;;;1.97;0.90;;;8.40;99.90;;;;;;5034686;28;20025;-79
2022/12/25 09:08:20;;;;;;;2.67;0.80;;;8.50;99.90;;;;;;5063573;28;20073;-79
2022/12/25 09:10:47;;;;;;;1.03;0.70;;;8.60;99.90;;;;;;5055740;28;20032;-79
2022/12/25 09:13:13;;;;;;;1.10;0.80;;;8.70;99.90;;;;;;5055217;28;20068;-79
2022/12/25 09:15:39;;;;;;;1.27;0.80;;;8.80;99.90;;;;;;5054571;28;20021;-78
2022/12/25 09:18:05;;;;;;;0.80;0.80;;;8.90;99.90;;;;;;5048796;28;20450;-76
2022/12/25 09:20:30;;;;;;;1.63;0.90;;;9.00;99.90;;;;;;5034542;28;20108;-72
2022/12/25 09:22:56;;;;;;;1.30;0.90;;;9.10;99.90;;;;;;5034100;28;20181;-78
2022/12/25 09:25:21;;;;;;;0.93;0.60;;;9.10;99.90;;;;;;5050544;28;20033;-80
2022/12/25 09:27:47;;;;;;;1.73;0.73;;;9.20;99.90;;;;;;5035323;28;20017;-80
2022/12/25 09:30:12;;;;;;;1.20;0.70;;;9.30;99.90;;;;;;5052376;28;20163;-80
2022/12/25 09:32:39;;;;;;;1.57;0.70;;;9.30;99.90;;;;;;5050951;28;20025;-80
2022/12/25 09:35:06;;;;;;;1.13;0.80;;;9.40;99.90;;;;;;5045879;28;20029;-80
2022/12/25 09:37:31;;;;;;;1.27;0.90;;;9.40;99.90;;;;;;5053714;28;20025;-80
2022/12/25 09:39:57;;;;;;;1.33;0.80;;;9.40;99.90;;;;;;5053596;28;20040;-81
2022/12/25 09:42:26;;;;;;;1.57;1.00;;;9.50;99.90;;;;;;5044624;28;20100;-81
2022/12/25 09:45:08;;;;;;;1.33;0.90;;;9.50;99.90;;;;;;5044636;28;20047;-80
2022/12/25 09:47:38;;;;;;;4.07;2.03;;;9.50;99.90;;;;;;5051275;28;20029;-80
2022/12/25 09:50:04;;;;;;;1.43;0.90;;;9.50;99.90;;;;;;5025276;28;20732;-80
2022/12/25 09:52:56;;;;;;;1.80;1.10;;;9.50;99.90;;;;;;5053559;28;20086;-80
2022/12/25 09:55:24;;;;;;;1.50;1.00;;;9.60;99.90;;;;;;5053694;28;20032;-84
2022/12/25 09:57:54;;;;;;;5.33;1.77;;;9.60;99.90;;;;;;5053402;28;20128;-80
2022/12/25 10:00:22;;;;;;;3.63;1.20;;;9.70;99.90;;;;;;5053716;28;20434;-79
2022/12/25 10:03:06;;;;;;;2.33;1.10;;;9.70;99.90;;;;;;5053223;28;20028;-82
2022/12/25 10:05:58;;;;;;;1.27;0.80;;;9.80;99.90;;;;;;5046814;28;20373;-77
2022/12/25 10:08:38;;;;;;;1.70;1.10;;;9.90;99.90;;;;;;5050490;28;20040;-80
2022/12/25 10:11:34;;;;;;;1.47;0.90;;;10.00;99.90;;;;;;5051545;28;20712;-79
2022/12/25 10:14:18;;;;;;;2.13;1.07;;;10.20;99.90;;;;;;5028100;28;20527;-79
2022/12/25 10:17:24;;;;;;;2.53;0.75;;;10.40;99.90;;;;;;5047055;28;20383;-77
2022/12/25 10:19:56;;;;;;;2.53;1.70;;;10.60;99.90;;;;;;5050182;28;20021;-76
2022/12/25 10:22:46;;;;;;;1.73;0.85;;;10.80;99.90;;;;;;5043532;28;20057;-76
2022/12/25 10:25:18;;;;;;;1.35;0.73;;;11.00;99.90;;;;;;5038629;28;20033;-77
2022/12/25 10:27:47;;;;;;;1.77;0.80;;;11.10;99.90;;;;;;5050297;28;20467;-76
2022/12/25 10:30:20;;;;;;;1.83;0.82;;;11.20;99.90;;;;;;5051934;28;20024;-76
2022/12/25 10:32:46;;;;;;;0.95;0.80;;;11.30;99.90;;;;;;5045971;28;20388;-76
2022/12/25 10:35:17;;;;;;;1.20;0.90;;;11.20;99.90;;;;;;5018153;28;20025;-76
2022/12/25 10:37:47;;;;;;;1.30;0.90;;;11.20;99.90;;;;;;5031775;28;20025;-77
2022/12/25 10:40:21;;;;;;;1.85;0.80;;;11.20;99.90;;;;;;5051232;28;20032;-77
2022/12/25 10:42:52;;;;;;;2.40;0.80;;;11.20;99.90;;;;;;5051620;28;20521;-77
2022/12/25 10:45:18;;;;;;;1.20;0.90;;;11.20;99.90;;;;;;5052628;28;20028;-77
2022/12/25 10:47:43;;;;;;;2.03;0.90;;;11.20;99.90;;;;;;5052254;28;20462;-81
2022/12/25 10:50:21;;;;;;;1.85;0.90;;;11.20;99.90;;;;;;5057780;28;20021;-81
2022/12/25 10:52:59;;;;;;;1.58;0.75;;;11.20;99.90;;;;;;5058605;28;20037;-81
2022/12/25 10:55:24;;;;;;;1.60;1.00;;;11.20;99.90;;;;;;5035512;28;20515;-81
2022/12/25 10:57:50;;;;;;;1.45;1.00;;;11.30;99.90;;;;;;5059828;28;20055;-82
2022/12/25 11:00:24;;;;;;;2.55;1.20;;;11.30;99.90;;;;;;5056486;28;20129;-81
2022/12/25 11:02:50;;;;;;;2.15;1.20;;;11.40;99.90;;;;;;5053490;28;20025;-81
2022/12/25 11:05:42;;;;;;;2.20;1.10;;;11.40;99.90;;;;;;5053290;28;20029;-82
2022/12/25 11:08:20;;;;;;;2.67;1.25;;;11.60;99.90;;;;;;5058489;28;20029;-81
2022/12/25 11:10:52;;;;;;;2.80;1.50;;;11.80;99.90;;;;;;5061806;28;20025;-81
2022/12/25 11:13:28;;;;;;;1.70;1.20;;;11.80;99.90;;;;;;5060336;28;20083;-81
2022/12/25 11:16:05;;;;;;;2.80;1.75;;;11.80;99.90;;;;;;5046099;28;20056;-81
2022/12/25 11:18:55;;;;;;;5.00;2.58;;;12.00;99.90;;;;;;5063237;28;20024;-81
2022/12/25 11:21:26;;;;;;;3.28;2.20;;;12.00;99.90;;;;;;5065473;28;20064;-81
2022/12/25 11:24:00;;;;;;;3.47;1.40;;;12.10;99.90;;;;;;5062208;28;20350;-81
2022/12/25 11:26:27;;;;;;;1.73;1.25;;;12.10;99.90;;;;;;5069173;28;20493;-81
2022/12/25 11:28:54;;;;;;;3.00;1.38;;;12.10;99.90;;;;;;5059992;28;20041;-81
2022/12/25 11:31:34;;;;;;;2.03;1.40;;;12.20;99.90;;;;;;5064241;28;20029;-81
2022/12/25 11:34:13;;;;;;;3.20;1.20;;;12.30;99.90;;;;;;5061505;28;20025;-82
2022/12/25 11:36:45;;;;;;;2.22;1.23;;;12.40;99.90;;;;;;5070235;28;20020;-81
2022/12/25 11:39:36;;;;;;;3.00;1.75;;;12.40;99.90;;;;;;5061988;28;20032;-81
2022/12/25 11:42:18;;;;;;;1.92;1.60;;;12.50;99.90;;;;;;5067744;28;20051;-82
2022/12/25 11:45:01;;;;;;;3.67;1.40;;;12.50;99.90;;;;;;5070821;28;20096;-81
2022/12/25 11:47:46;;;;;;;2.92;1.38;;;12.60;99.90;;;;;;5059574;28;20457;-81
2022/12/25 11:50:35;;;;;;;3.47;1.63;;;12.60;99.90;;;;;;5062934;28;20108;-82
2022/12/25 11:53:12;;;;;;;3.00;1.80;;;12.70;99.90;;;;;;5039697;28;20033;-87
2022/12/25 11:55:41;;;;;;;3.80;1.20;;;12.70;99.90;;;;;;5054608;28;20052;-81
2022/12/25 11:58:19;;;;;;;2.95;1.10;;;12.80;99.90;;;;;;5045157;28;20035;-81
2022/12/25 12:00:47;;;;;;;1.85;1.30;;;12.70;99.90;;;;;;5035649;28;20033;-81
2022/12/25 12:03:35;;;;;;;2.60;1.02;;;12.80;99.90;;;;;;5035545;28;20489;-82
2022/12/25 12:06:05;;;;;;;2.00;1.20;;;12.80;99.90;;;;;;5035766;28;20021;-82
2022/12/25 12:08:33;;;;;;;5.25;1.55;;;12.80;99.90;;;;;;5035784;28;20026;-82
2022/12/25 12:11:31;;;;;;;2.00;1.20;;;12.90;99.90;;;;;;5047112;28;20096;-80
2022/12/25 12:14:02;;;;;;;3.03;1.15;;;12.90;99.90;;;;;;5038793;28;20083;-80
2022/12/25 12:16:28;;;;;;;1.65;1.10;;;13.00;99.90;;;;;;5055107;28;20040;-79
2022/12/25 12:18:54;;;;;;;1.90;1.15;;;13.10;99.90;;;;;;5055447;28;20104;-80
2022/12/25 12:21:39;;;;;;;2.55;1.40;;;13.30;99.90;;;;;;5054045;28;20121;-79
2022/12/25 12:24:11;;;;;;;1.98;1.08;;;13.40;99.90;;;;;;5055425;28;20025;-79
2022/12/25 12:26:39;;;;;;;3.03;2.03;;;13.50;99.90;;;;;;5055418;28;20055;-80
2022/12/25 12:29:18;;;;;;;3.92;2.60;;;13.60;99.90;;;;;;5037301;28;20083;-79
2022/12/25 12:31:47;;;;;;;4.00;2.35;;;13.60;99.90;;;;;;5055165;28;20029;-79
2022/12/25 12:34:28;;;;;;;3.25;1.50;;;13.70;99.90;;;;;;5054928;28;20025;-79
2022/12/25 12:37:05;;;;;;;3.85;2.03;;;13.60;99.90;;;;;;5055128;28;20377;-79
2022/12/25 12:39:39;;;;;;;2.67;1.73;;;13.60;99.90;;;;;;5055379;28;20417;-79
2022/12/25 12:42:17;;;;;;;4.40;2.17;;;13.50;99.90;;;;;;5054779;28;20061;-79
2022/12/25 12:44:44;;;;;;;2.17;1.35;;;13.50;99.90;;;;;;5054870;28;20032;-79
2022/12/25 12:47:29;;;;;;;2.67;1.75;;;13.40;99.90;;;;;;5054832;28;20059;-79
2022/12/25 12:49:59;;;;;;;4.90;2.72;;;13.40;99.90;;;;;;5055403;28;20451;-79
2022/12/25 12:52:36;;;;;;;12.05;7.28;;;13.40;99.90;;;;;;5053330;28;20052;-79
2022/12/25 12:55:11;;;;;;;9.05;5.05;;;13.40;99.90;;;;;;5054466;28;20033;-80
2022/12/25 12:57:40;;;;;;;22.75;11.88;;;13.50;99.90;;;;;;5054713;28;20032;-79
2022/12/25 13:00:18;;;;;;;23.80;11.02;;;13.40;99.90;;;;;;5036817;28;20130;-79
2022/12/25 13:03:21;;;;;;;12.68;7.30;;;13.40;99.90;;;;;;5054575;28;20105;-79
2022/12/25 13:06:24;;;;;;;3.70;2.50;;;13.40;99.90;;;;;;5054405;28;20454;-79
2022/12/25 13:08:56;;;;;;;3.92;2.30;;;13.40;99.90;;;;;;5054309;28;20021;-79
2022/12/25 13:11:30;;;;;;;3.30;1.67;;;13.30;99.90;;;;;;5054526;28;20097;-79
2022/12/25 13:14:00;;;;;;;3.15;1.50;;;13.30;99.90;;;;;;5054142;28;20377;-79
2022/12/25 13:16:33;;;;;;;2.30;1.50;;;13.30;99.90;;;;;;5038033;28;20026;-79
2022/12/25 13:19:03;;;;;;;3.35;1.50;;;13.20;99.90;;;;;;5016297;28;20419;-79
2022/12/25 13:21:29;;;;;;;3.08;1.30;;;13.10;99.90;;;;;;5039135;28;20429;-79
2022/12/25 13:24:07;;;;;;;3.55;1.73;;;13.00;99.90;;;;;;5053926;28;20025;-79
2022/12/25 13:26:33;;;;;;;4.18;1.98;;;13.00;99.90;;;;;;5054548;28;20021;-79
2022/12/25 13:28:59;;;;;;;2.40;1.30;;;12.90;99.90;;;;;;5054172;28;20029;-79
2022/12/25 13:31:27;;;;;;;4.90;2.65;;;12.90;99.90;;;;;;5053767;28;20063;-79
2022/12/25 13:34:03;;;;;;;30.70;11.40;;;12.80;99.90;;;;;;5053683;28;20039;-79
2022/12/25 13:36:34;;;;;;;43.03;12.32;;;12.80;99.90;;;;;;5054049;28;20091;-79
2022/12/25 13:39:00;;;;;;;16.95;5.80;;;12.70;99.90;;;;;;5053804;28;20423;-79
2022/12/25 13:44:26;;;;;;;5.47;2.17;;;12.70;99.90;;;;;;5053961;28;20087;-79
2022/12/25 13:46:52;;;;;;;3.75;2.47;;;12.60;99.90;;;;;;5052207;28;20067;-79
2022/12/25 13:49:21;;;;;;;5.65;3.10;;;12.60;99.90;;;;;;5053539;28;20025;-79
2022/12/25 13:51:49;;;;;;;4.93;2.83;;;12.50;99.90;;;;;;5053441;28;20037;-79
2022/12/25 13:54:16;;;;;;;6.35;3.53;;;12.50;99.90;;;;;;5053638;28;20025;-79
2022/12/25 13:56:48;;;;;;;8.00;4.35;;;12.40;99.90;;;;;;5053357;28;20021;-79
2022/12/25 13:59:17;;;;;;;5.78;3.20;;;12.40;99.90;;;;;;5053181;28;20017;-80
2022/12/25 14:01:44;;;;;;;7.68;3.40;;;12.40;99.90;;;;;;5049034;28;20445;-80
2022/12/25 14:04:14;;;;;;;3.78;2.00;;;12.30;99.90;;;;;;5051068;28;20036;-80
2022/12/25 14:06:40;;;;;;;5.03;2.88;;;12.30;99.90;;;;;;5034395;28;20104;-80
2022/12/25 14:09:06;;;;;;;5.57;2.60;;;12.20;99.90;;;;;;5051318;28;20099;-81
2022/12/25 14:11:33;;;;;;;3.45;1.92;;;12.30;99.90;;;;;;5048479;28;20127;-81
2022/12/25 14:14:02;;;;;;;4.13;2.00;;;12.20;99.90;;;;;;5049337;28;20902;-81
2022/12/25 14:16:28;;;;;;;3.30;1.70;;;12.20;99.90;;;;;;5048278;28;20106;-81
2022/12/25 14:18:59;;;;;;;2.33;1.48;;;12.10;99.90;;;;;;5046548;28;20037;-80
2022/12/25 14:21:37;;;;;;;11.80;6.82;;;12.00;99.90;;;;;;5028606;28;20468;-80
2022/12/25 14:24:11;;;;;;;9.98;6.43;;;12.00;99.90;;;;;;5048584;28;20151;-80
2022/12/25 14:26:37;;;;;;;5.68;3.45;;;11.90;99.90;;;;;;5045340;28;20025;-80
2022/12/25 14:29:07;;;;;;;4.22;2.60;;;11.80;99.90;;;;;;5050785;28;20491;-80
2022/12/25 14:31:33;;;;;;;3.40;1.67;;;11.70;99.90;;;;;;5047991;28;20504;-80
2022/12/25 14:34:04;;;;;;;4.70;1.77;;;11.70;99.90;;;;;;5048880;28;20119;-80
2022/12/25 14:36:32;;;;;;;2.67;1.65;;;11.60;99.90;;;;;;5047259;28;20163;-80
2022/12/25 14:39:00;;;;;;;5.55;1.70;;;11.60;99.90;;;;;;5047148;28;20033;-80
2022/12/25 14:41:33;;;;;;;2.53;1.45;;;11.50;99.90;;;;;;5046146;28;20495;-80
2022/12/25 14:44:01;;;;;;;3.65;1.60;;;11.40;99.90;;;;;;5047170;28;20036;-80
2022/12/25 14:46:29;;;;;;;3.53;1.67;;;11.30;99.90;;;;;;5048361;28;20037;-80
2022/12/25 14:49:21;;;;;;;3.95;1.90;;;11.30;99.90;;;;;;5048265;28;20045;-80
2022/12/25 14:51:47;;;;;;;3.58;1.95;;;11.20;99.90;;;;;;5048803;28;20833;-80
2022/12/25 14:54:18;;;;;;;3.63;1.77;;;11.10;99.90;;;;;;5047833;28;20041;-80